Time;durP1;ratioP1;P1;durP2;ratioP2;P2;SDS_P1;SDS_P2;PMS_P1;PMS_P2;Temp;Humidity;BMP_temperature;BMP_pressure;BME280_temperature;BME280_humidity;BME280_pressure;Samples;Min_cycle;Max_cycle;Signal;HPM_P1;HPM_P2
2022/06/23 00:01:21;;;;;;;11.05;3.03;;;17.70;99.90;;;;;;5092817;28;20058;-68
2022/06/23 00:03:52;;;;;;;12.88;3.25;;;17.80;99.90;;;;;;5093033;28;20040;-70
2022/06/23 00:06:21;;;;;;;;;;;17.80;99.90;;;;;;5093579;28;20441;-70
2022/06/23 00:08:46;;;;;;;12.15;3.10;;;17.70;99.90;;;;;;5092887;28;19919;-69
2022/06/23 00:11:27;;;;;;;9.43;3.42;;;17.70;99.90;;;;;;5092869;28;20607;-70
2022/06/23 00:14:20;;;;;;;13.50;3.40;;;17.60;99.90;;;;;;5093034;28;20043;-70
2022/06/23 00:16:46;;;;;;;15.45;4.20;;;17.50;99.90;;;;;;5092868;28;20036;-70
2022/06/23 00:19:19;;;;;;;20.00;4.18;;;17.40;99.90;;;;;;5074684;28;20059;-70
2022/06/23 00:21:58;;;;;;;15.90;3.47;;;17.50;99.90;;;;;;5091820;28;20499;-70
2022/06/23 00:24:30;;;;;;;12.95;3.92;;;17.50;99.90;;;;;;5093075;28;20476;-70
2022/06/23 00:26:55;;;;;;;11.52;3.72;;;17.60;99.90;;;;;;5092956;28;20048;-68
2022/06/23 00:29:23;;;;;;;10.90;3.50;;;17.60;99.90;;;;;;5092759;28;20408;-70
2022/06/23 00:32:03;;;;;;;13.43;3.17;;;17.60;99.90;;;;;;5092771;28;20529;-69
2022/06/23 00:34:55;;;;;;;15.55;3.17;;;17.50;99.90;;;;;;5092865;28;20507;-70
2022/06/23 00:37:23;;;;;;;9.95;3.17;;;17.60;99.90;;;;;;5092847;28;20572;-70
2022/06/23 00:39:57;;;;;;;12.68;4.20;;;17.70;99.90;;;;;;5092695;28;20123;-70
2022/06/23 00:42:37;;;;;;;13.75;3.35;;;17.70;99.90;;;;;;5092535;28;20097;-68
2022/06/23 00:45:20;;;;;;;10.05;3.72;;;17.60;99.90;;;;;;5092289;28;20040;-69
2022/06/23 00:48:02;;;;;;;17.05;4.20;;;17.50;99.90;;;;;;5092368;28;20051;-70
2022/06/23 00:50:49;;;;;;;13.18;3.10;;;17.30;99.90;;;;;;5092610;28;20471;-69
2022/06/23 00:53:26;;;;;;;15.20;3.22;;;17.30;99.90;;;;;;5094344;28;20132;-70
2022/06/23 00:56:06;;;;;;;12.45;3.05;;;17.30;99.90;;;;;;5096387;28;20043;-69
2022/06/23 00:58:39;;;;;;;15.77;3.67;;;17.30;99.90;;;;;;5096375;28;20069;-69
2022/06/23 01:01:20;;;;;;;12.82;3.40;;;17.30;99.90;;;;;;5096146;28;20093;-69
2022/06/23 01:04:06;;;;;;;10.00;3.22;;;17.40;99.90;;;;;;5096322;28;20036;-70
2022/06/23 01:06:50;;;;;;;8.80;2.92;;;17.40;99.90;;;;;;5088783;28;20032;-69
2022/06/23 01:09:51;;;;;;;17.65;3.80;;;17.40;99.90;;;;;;5095983;28;20048;-69
2022/06/23 01:12:41;;;;;;;15.95;4.28;;;17.50;99.90;;;;;;5096076;28;20126;-69
2022/06/23 01:15:30;;;;;;;22.73;3.80;;;17.50;99.90;;;;;;5096014;28;20039;-70
2022/06/23 01:18:06;;;;;;;9.02;2.97;;;17.50;99.90;;;;;;5095897;28;20042;-71
2022/06/23 01:20:55;;;;;;;8.68;3.55;;;17.60;99.90;;;;;;5095904;28;20074;-70
2022/06/23 01:23:50;;;;;;;21.02;3.47;;;17.60;99.90;;;;;;5095882;28;20552;-70
2022/06/23 01:26:26;;;;;;;11.45;4.03;;;17.60;99.90;;;;;;5095790;28;20499;-69
2022/06/23 01:29:10;;;;;;;13.23;4.35;;;17.40;99.90;;;;;;5095792;28;20097;-69
2022/06/23 01:32:04;;;;;;;14.50;2.97;;;17.30;99.90;;;;;;5095741;28;20040;-69
2022/06/23 01:34:45;;;;;;;12.10;3.13;;;17.20;99.90;;;;;;5095558;28;20044;-70
2022/06/23 01:37:32;;;;;;;13.65;3.42;;;17.20;99.90;;;;;;5095587;28;20051;-68
2022/06/23 01:40:20;;;;;;;12.48;3.72;;;17.20;99.90;;;;;;5095484;28;20044;-69
2022/06/23 01:43:03;;;;;;;13.80;3.70;;;17.30;99.90;;;;;;5095310;28;20060;-70
2022/06/23 01:45:43;;;;;;;50.28;5.32;;;17.10;99.90;;;;;;5095297;28;20553;-69
2022/06/23 01:51:40;;;;;;;341.27;14.20;;;17.10;99.90;;;;;;5072637;28;20033;-69
2022/06/23 01:54:32;;;;;;;76.15;6.25;;;17.10;99.90;;;;;;5072529;28;20072;-69
2022/06/23 01:57:07;;;;;;;11.98;3.95;;;17.10;99.90;;;;;;5089164;28;20051;-70
2022/06/23 01:59:58;;;;;;;11.88;4.40;;;17.10;99.90;;;;;;5095181;28;20048;-69
2022/06/23 02:02:38;;;;;;;91.85;6.68;;;17.10;99.90;;;;;;5095114;28;20042;-70
2022/06/23 02:05:11;;;;;;;12.20;3.97;;;17.20;99.90;;;;;;5094279;28;20502;-69
2022/06/23 02:07:48;;;;;;;19.30;4.70;;;17.30;99.90;;;;;;5094581;28;20480;-70
2022/06/23 02:10:29;;;;;;;16.10;5.47;;;17.20;99.90;;;;;;5094868;28;20048;-69
2022/06/23 02:13:10;;;;;;;;;;;17.10;99.90;;;;;;5095320;28;20407;-70
2022/06/23 02:15:47;;;;;;;33.08;4.65;;;17.00;99.90;;;;;;5094811;28;20570;-69
2022/06/23 02:18:26;;;;;;;11.38;3.70;;;16.90;99.90;;;;;;5094486;28;20060;-69
2022/06/23 02:21:24;;;;;;;32.05;5.97;;;16.90;99.90;;;;;;5094265;28;20040;-70
2022/06/23 02:24:00;;;;;;;13.05;4.13;;;16.80;99.90;;;;;;5091912;28;20036;-70
2022/06/23 02:27:06;;;;;;;15.25;5.10;;;16.80;99.90;;;;;;5094081;28;20156;-69
2022/06/23 02:29:55;;;;;;;8.27;3.88;;;16.80;99.90;;;;;;5094446;28;20051;-69
2022/06/23 02:32:47;;;;;;;13.98;3.97;;;16.90;99.90;;;;;;5094508;28;20074;-69
2022/06/23 02:35:19;;;;;;;8.27;3.10;;;17.00;99.90;;;;;;5094123;28;20075;-70
2022/06/23 02:38:00;;;;;;;12.90;3.80;;;17.10;99.90;;;;;;5094171;28;20036;-69
2022/06/23 02:40:42;;;;;;;15.02;4.30;;;17.20;99.90;;;;;;5094137;28;20047;-69
2022/06/23 02:43:17;;;;;;;19.85;4.13;;;17.20;99.90;;;;;;5094220;28;20036;-70
2022/06/23 02:46:01;;;;;;;13.50;4.50;;;17.30;99.90;;;;;;5092146;28;20043;-69
2022/06/23 02:49:02;;;;;;;10.50;3.20;;;17.30;99.90;;;;;;5091592;28;20044;-70
2022/06/23 02:51:55;;;;;;;10.77;3.72;;;17.40;99.90;;;;;;5091882;28;20036;-69
2022/06/23 02:54:30;;;;;;;11.52;3.47;;;17.40;99.90;;;;;;5092662;28;20071;-70
2022/06/23 02:57:12;;;;;;;9.80;4.07;;;17.40;99.90;;;;;;5091488;28;20495;-70
2022/06/23 02:59:58;;;;;;;12.50;3.13;;;17.40;99.90;;;;;;5092867;28;20044;-69
2022/06/23 03:02:45;;;;;;;8.50;3.30;;;17.40;99.90;;;;;;5093473;28;20044;-69
2022/06/23 03:05:47;;;;;;;13.40;4.13;;;17.40;99.90;;;;;;5093596;28;20039;-69
2022/06/23 03:08:28;;;;;;;13.52;3.63;;;17.40;99.90;;;;;;5093456;28;20104;-69
2022/06/23 03:11:51;;;;;;;11.10;4.10;;;17.20;99.90;;;;;;5093684;28;20036;-69
2022/06/23 03:14:16;;;;;;;9.07;3.25;;;17.10;99.90;;;;;;5093586;28;20520;-69
2022/06/23 03:16:49;;;;;;;17.25;3.83;;;17.10;99.90;;;;;;5093020;28;20043;-69
2022/06/23 03:19:29;;;;;;;13.82;3.33;;;17.00;99.90;;;;;;5093505;28;20040;-69
2022/06/23 03:22:07;;;;;;;10.90;4.73;;;17.00;99.90;;;;;;5093635;28;20495;-69
2022/06/23 03:24:42;;;;;;;10.85;3.53;;;17.10;99.90;;;;;;5093264;28;20040;-69
2022/06/23 03:27:30;;;;;;;13.48;4.22;;;17.20;99.90;;;;;;5093353;28;20507;-70
2022/06/23 03:30:13;;;;;;;16.23;4.57;;;17.20;99.90;;;;;;5093411;28;20058;-69
2022/06/23 03:32:48;;;;;;;22.15;4.32;;;17.20;99.90;;;;;;5093326;28;20031;-70
2022/06/23 03:35:23;;;;;;;12.02;4.18;;;17.30;99.90;;;;;;5093205;28;20043;-70
2022/06/23 03:37:55;;;;;;;20.23;8.77;;;17.30;99.90;;;;;;5092673;28;20061;-70
2022/06/23 03:43:49;;;;;;;25.48;12.20;;;17.40;99.90;;;;;;5093313;28;20071;-69
2022/06/23 03:46:26;;;;;;;21.58;10.75;;;17.50;99.90;;;;;;5093328;28;20044;-70
2022/06/23 03:49:08;;;;;;;35.53;12.13;;;17.50;99.90;;;;;;5093088;28;20143;-68
2022/06/23 03:51:56;;;;;;;25.88;11.32;;;17.50;99.90;;;;;;5093149;28;20127;-69
2022/06/23 03:54:34;;;;;;;25.23;10.23;;;17.40;99.90;;;;;;5093111;28;20093;-70
2022/06/23 03:57:10;;;;;;;20.52;9.30;;;17.40;99.90;;;;;;5093114;28;20044;-70
2022/06/23 03:59:54;;;;;;;22.20;9.23;;;17.40;99.90;;;;;;5093227;28;20044;-70
2022/06/23 04:02:25;;;;;;;28.85;10.88;;;17.30;99.90;;;;;;5093129;28;20046;-69
2022/06/23 04:04:54;;;;;;;23.80;8.43;;;17.30;99.90;;;;;;5092718;28;20028;-70
2022/06/23 04:07:29;;;;;;;18.70;8.73;;;17.30;99.90;;;;;;5092721;28;20071;-70
2022/06/23 04:10:37;;;;;;;20.08;9.00;;;17.40;99.90;;;;;;5093034;28;20036;-69
2022/06/23 04:13:31;;;;;;;20.48;8.52;;;17.30;99.90;;;;;;5093355;28;20139;-69
2022/06/23 04:16:06;;;;;;;26.23;8.88;;;17.30;99.90;;;;;;5092973;28;20518;-70
2022/06/23 04:18:32;;;;;;;26.92;8.23;;;17.30;99.90;;;;;;5092967;28;20522;-70
2022/06/23 04:21:14;;;;;;;20.45;7.57;;;17.30;99.90;;;;;;5092738;28;20032;-69
2022/06/23 04:23:44;;;;;;;20.98;8.05;;;17.30;99.90;;;;;;5092883;28;20098;-69
2022/06/23 04:26:15;;;;;;;25.50;8.55;;;17.30;99.90;;;;;;5092947;28;20048;-70
2022/06/23 04:28:45;;;;;;;27.50;8.88;;;17.30;99.90;;;;;;5096824;28;20135;-70
2022/06/23 04:31:20;;;;;;;32.53;9.13;;;17.30;99.90;;;;;;5096805;28;20043;-70
2022/06/23 04:33:47;;;;;;;26.85;10.10;;;17.30;99.90;;;;;;5096673;28;20503;-69
2022/06/23 04:36:35;;;;;;;30.20;9.63;;;17.30;99.90;;;;;;5096718;28;20085;-69
2022/06/23 04:39:20;;;;;;;27.23;8.70;;;17.30;99.90;;;;;;5096454;28;20047;-70
2022/06/23 04:41:50;;;;;;;30.15;11.73;;;17.40;99.90;;;;;;5096212;28;20085;-70
2022/06/23 04:44:16;;;;;;;27.00;9.88;;;17.30;99.90;;;;;;5096623;28;20051;-69
2022/06/23 04:46:47;;;;;;;26.20;10.07;;;17.40;99.90;;;;;;5096630;28;20085;-69
2022/06/23 04:49:59;;;;;;;27.40;10.55;;;17.40;99.90;;;;;;5096412;28;20039;-69
2022/06/23 04:52:51;;;;;;;33.55;11.13;;;17.40;99.90;;;;;;5095948;28;20042;-69
2022/06/23 04:55:22;;;;;;;28.65;9.63;;;17.40;99.90;;;;;;5096334;28;20040;-69
2022/06/23 04:57:59;;;;;;;21.38;8.80;;;17.40;99.90;;;;;;5096290;28;20036;-69
2022/06/23 05:00:47;;;;;;;22.52;9.85;;;17.30;99.90;;;;;;5096183;28;20395;-69
2022/06/23 05:03:34;;;;;;;37.83;18.17;;;17.30;99.90;;;;;;5096158;28;20054;-69
2022/06/23 05:06:08;;;;;;;21.80;10.00;;;17.30;99.90;;;;;;5096285;28;20085;-70
2022/06/23 05:08:39;;;;;;;22.70;10.20;;;17.30;99.90;;;;;;5095961;28;20058;-69
2022/06/23 05:11:19;;;;;;;27.23;10.07;;;17.40;99.90;;;;;;5095794;28;20376;-70
2022/06/23 05:13:49;;;;;;;24.70;11.23;;;17.40;99.90;;;;;;5095818;28;20044;-69
2022/06/23 05:16:28;;;;;;;28.05;11.82;;;17.60;99.90;;;;;;5095701;28;20036;-70
2022/06/23 05:18:57;;;;;;;25.20;11.23;;;17.60;99.90;;;;;;5095938;28;20075;-71
2022/06/23 05:21:40;;;;;;;27.92;12.43;;;17.60;99.90;;;;;;5095851;28;20043;-70
2022/06/23 05:24:26;;;;;;;27.85;12.00;;;17.60;99.90;;;;;;5095938;28;20047;-70
2022/06/23 05:26:57;;;;;;;22.70;10.20;;;17.70;99.90;;;;;;5095929;28;20071;-70
2022/06/23 05:29:36;;;;;;;27.83;11.55;;;17.70;99.90;;;;;;5095600;28;20143;-69
2022/06/23 05:32:13;;;;;;;37.90;12.77;;;17.80;99.90;;;;;;5095016;28;20052;-69
2022/06/23 05:34:54;;;;;;;26.77;12.35;;;17.90;99.90;;;;;;5095071;28;20071;-69
2022/06/23 05:37:24;;;;;;;25.25;11.60;;;18.00;99.90;;;;;;5076223;28;20521;-70
2022/06/23 05:40:10;;;;;;;29.38;11.88;;;18.20;99.90;;;;;;5094493;28;20088;-69
2022/06/23 05:42:41;;;;;;;40.00;13.15;;;18.20;99.90;;;;;;5095115;28;20071;-71
2022/06/23 05:45:34;;;;;;;25.85;12.05;;;18.30;99.90;;;;;;5095269;28;20065;-71
2022/06/23 05:48:04;;;;;;;41.75;13.07;;;18.40;99.90;;;;;;5097174;28;20048;-70
2022/06/23 05:50:42;;;;;;;18.80;12.13;;;18.40;99.90;;;;;;5102609;28;20050;-71
2022/06/23 05:53:18;;;;;;;26.15;12.27;;;18.50;99.90;;;;;;5108961;28;20048;-71
2022/06/23 05:55:55;;;;;;;31.67;12.60;;;18.70;99.90;;;;;;5115449;28;20042;-71
2022/06/23 05:58:37;;;;;;;27.80;14.52;;;18.70;99.90;;;;;;5115455;28;20042;-71
2022/06/23 06:01:37;;;;;;;24.92;13.75;;;18.80;99.90;;;;;;5109036;28;20510;-71
2022/06/23 06:04:31;;;;;;;25.50;12.57;;;19.00;99.90;;;;;;5083271;28;20063;-71
2022/06/23 06:06:58;;;;;;;25.27;11.07;;;19.30;99.90;;;;;;5102821;28;20048;-71
2022/06/23 06:09:37;;;;;;;23.38;11.43;;;18.90;99.90;;;;;;5109656;28;20108;-70
2022/06/23 06:12:21;;;;;;;19.88;11.38;;;18.80;99.90;;;;;;5115456;28;20044;-71
2022/06/23 06:14:59;;;;;;;32.63;12.13;;;18.60;99.90;;;;;;5109679;28;20051;-70
2022/06/23 06:17:28;;;;;;;19.92;10.05;;;18.70;99.90;;;;;;5074199;28;20055;-70
2022/06/23 06:19:57;;;;;;;26.42;12.73;;;18.90;99.90;;;;;;5093411;28;20047;-71
2022/06/23 06:22:39;;;;;;;20.42;10.73;;;19.50;99.90;;;;;;5093586;28;20399;-71
2022/06/23 06:25:07;;;;;;;28.77;10.23;;;19.40;99.90;;;;;;5093084;28;20115;-70
2022/06/23 06:27:33;;;;;;;25.02;8.95;;;19.50;99.90;;;;;;5072794;28;20451;-70
2022/06/23 06:30:00;;;;;;;24.35;9.10;;;19.40;99.90;;;;;;5074308;28;20055;-70
2022/06/23 06:32:37;;;;;;;26.52;9.93;;;19.50;99.90;;;;;;5074263;28;20583;-70
2022/06/23 06:35:31;;;;;;;17.70;8.88;;;20.30;99.90;;;;;;5074057;28;20052;-72
2022/06/23 06:38:00;;;;;;;20.42;9.10;;;20.60;99.90;;;;;;5074049;28;20041;-71
2022/06/23 06:40:27;;;;;;;18.65;8.13;;;21.00;99.90;;;;;;5074037;28;20515;-71
2022/06/23 06:42:59;;;;;;;20.80;8.38;;;21.10;99.90;;;;;;5073843;28;20086;-72
2022/06/23 06:45:32;;;;;;;19.85;7.65;;;21.30;99.90;;;;;;5073822;28;20050;-71
2022/06/23 06:47:58;;;;;;;25.60;6.72;;;21.30;99.90;;;;;;5073811;28;20144;-71
2022/06/23 06:50:46;;;;;;;21.10;7.13;;;21.40;99.90;;;;;;5088842;28;20044;-71
2022/06/23 06:53:36;;;;;;;27.75;7.30;;;21.50;99.90;;;;;;5091421;28;20792;-70
2022/06/23 06:56:24;;;;;;;27.75;7.57;;;21.80;99.90;;;;;;5093792;28;20052;-70
2022/06/23 06:59:01;;;;;;;25.83;7.50;;;21.50;99.90;;;;;;5093932;28;20101;-70
2022/06/23 07:01:30;;;;;;;19.60;7.57;;;21.00;99.90;;;;;;5094067;28;20043;-70
2022/06/23 07:03:56;;;;;;;22.38;7.70;;;20.70;99.90;;;;;;5094094;28;20097;-70
2022/06/23 07:07:03;;;;;;;17.45;7.68;;;20.70;99.90;;;;;;5093990;28;20036;-70
2022/06/23 07:09:36;;;;;;;31.77;8.82;;;20.60;99.90;;;;;;5011505;28;20541;-70
2022/06/23 07:12:27;;;;;;;21.80;7.15;;;20.60;99.90;;;;;;5011516;28;20042;-70
2022/06/23 07:15:08;;;;;;;;;;;20.50;99.90;;;;;;5067721;28;20765;-70
2022/06/23 07:17:52;;;;;;;24.27;6.75;;;20.80;99.90;;;;;;5093843;28;19911;-71
2022/06/23 07:20:25;;;;;;;15.38;4.88;;;21.30;99.90;;;;;;5093300;28;20064;-71
2022/06/23 07:22:53;;;;;;;25.55;6.03;;;21.30;99.90;;;;;;5093490;28;20114;-71
2022/06/23 07:25:35;;;;;;;23.38;5.78;;;21.20;99.90;;;;;;5093650;28;20037;-71
2022/06/23 07:28:11;;;;;;;18.63;6.00;;;21.20;99.90;;;;;;5093545;28;20087;-71
2022/06/23 07:30:44;;;;;;;22.10;6.95;;;21.40;99.90;;;;;;5109217;28;20403;-71
2022/06/23 07:33:24;;;;;;;18.08;6.15;;;21.40;99.90;;;;;;5093574;28;20495;-71
2022/06/23 07:36:24;;;;;;;18.98;5.63;;;21.50;99.90;;;;;;5093532;28;20135;-70
2022/06/23 07:39:03;;;;;;;;;;;21.40;99.90;;;;;;5093827;28;20157;-71
2022/06/23 07:41:34;;;;;;;24.20;6.22;;;21.70;99.90;;;;;;5093018;28;20458;-70
2022/06/23 07:44:20;;;;;;;21.55;5.53;;;;;;;;;;5092924;28;20498;-70
2022/06/23 07:46:46;;;;;;;17.35;5.38;;;21.60;99.90;;;;;;5093261;28;20499;-71
2022/06/23 07:49:12;;;;;;;17.48;5.78;;;21.40;99.90;;;;;;5093710;28;20052;-71
2022/06/23 07:51:40;;;;;;;22.95;5.50;;;21.40;99.90;;;;;;5097661;28;20600;-71
2022/06/23 07:54:07;;;;;;;16.80;5.07;;;21.10;99.90;;;;;;5105946;28;20055;-71
2022/06/23 07:56:36;;;;;;;27.33;5.85;;;21.20;99.90;;;;;;5081657;28;20036;-70
2022/06/23 07:59:08;;;;;;;17.25;5.32;;;21.10;99.90;;;;;;5072962;28;20051;-71
2022/06/23 08:01:41;;;;;;;15.63;4.63;;;21.00;99.90;;;;;;5071376;28;20561;-71
2022/06/23 08:04:31;;;;;;;21.10;5.35;;;21.00;99.90;;;;;;5072918;28;20044;-71
2022/06/23 08:07:01;;;;;;;20.30;4.82;;;21.20;99.90;;;;;;5072596;28;20127;-70
2022/06/23 08:09:34;;;;;;;20.98;5.90;;;21.10;99.90;;;;;;5054717;28;20053;-71
2022/06/23 08:18:48;;;;;;;21.33;4.63;;;21.00;99.90;;;;;;5082781;28;20165;-71
2022/06/23 08:21:20;;;;;;;19.08;4.90;;;20.90;99.90;;;;;;5100920;28;20048;-70
2022/06/23 08:24:12;;;;;;;20.25;4.82;;;21.00;99.90;;;;;;5104335;28;20040;-70
2022/06/23 08:26:41;;;;;;;18.27;5.43;;;21.10;99.90;;;;;;5092179;28;20074;-70
2022/06/23 08:29:10;;;;;;;18.17;4.53;;;21.10;99.90;;;;;;5092757;28;20048;-70
2022/06/23 08:31:38;;;;;;;16.48;4.78;;;21.10;99.90;;;;;;5092781;28;20178;-70
2022/06/23 08:34:05;;;;;;;25.40;4.90;;;21.00;99.90;;;;;;5091773;28;20040;-71
2022/06/23 08:36:45;;;;;;;17.30;4.93;;;21.00;99.90;;;;;;5092643;28;20411;-71
2022/06/23 08:39:25;;;;;;;23.95;5.35;;;21.00;99.90;;;;;;5092934;28;20423;-71
2022/06/23 08:42:18;;;;;;;22.60;4.97;;;21.00;99.90;;;;;;5092757;28;20495;-71
2022/06/23 08:44:50;;;;;;;23.95;5.25;;;20.90;99.90;;;;;;5092168;28;20093;-71
2022/06/23 08:47:40;;;;;;;25.10;4.70;;;20.70;99.90;;;;;;5092687;28;20040;-70
2022/06/23 08:50:26;;;;;;;;;;;20.80;99.90;;;;;;5093078;28;20473;-71
2022/06/23 08:53:15;;;;;;;21.67;4.45;;;20.80;99.90;;;;;;5084923;28;19919;-70
2022/06/23 08:55:54;;;;;;;17.15;4.68;;;20.90;99.90;;;;;;5092680;28;20047;-71
2022/06/23 08:58:52;;;;;;;15.82;4.43;;;21.00;99.90;;;;;;5092672;28;20137;-70
2022/06/23 09:01:29;;;;;;;23.67;5.18;;;21.10;99.90;;;;;;5092665;28;20047;-71
2022/06/23 09:04:27;;;;;;;20.42;5.00;;;21.10;99.90;;;;;;5092551;28;20032;-71
2022/06/23 09:07:08;;;;;;;23.75;5.20;;;21.10;99.90;;;;;;5092532;28;20491;-71
2022/06/23 09:10:08;;;;;;;21.38;5.07;;;21.10;99.90;;;;;;5092508;28;20522;-71
2022/06/23 09:12:54;;;;;;;19.77;5.13;;;21.40;99.90;;;;;;5092652;28;20513;-70
2022/06/23 09:15:48;;;;;;;24.48;5.05;;;21.40;99.90;;;;;;5094898;28;20483;-70
2022/06/23 09:18:47;;;;;;;19.33;4.80;;;21.60;99.90;;;;;;5093936;28;20066;-71
2022/06/23 09:21:27;;;;;;;34.17;5.85;;;21.70;99.90;;;;;;5095434;28;20028;-71
2022/06/23 09:24:14;;;;;;;31.83;6.50;;;21.70;99.90;;;;;;5095982;28;20071;-71
2022/06/23 09:26:53;;;;;;;26.13;5.28;;;21.70;99.90;;;;;;5095764;28;20035;-71
2022/06/23 09:30:03;;;;;;;28.35;5.97;;;21.80;99.90;;;;;;5101611;28;20494;-71
2022/06/23 09:32:57;;;;;;;25.85;5.97;;;22.00;99.90;;;;;;5091468;28;20117;-70
2022/06/23 09:35:28;;;;;;;37.70;6.10;;;22.20;99.90;;;;;;5095267;28;20130;-71
2022/06/23 09:38:25;;;;;;;38.05;6.95;;;22.40;99.90;;;;;;5094776;28;20048;-70
2022/06/23 09:40:51;;;;;;;29.45;4.85;;;22.10;99.90;;;;;;5095522;28;20129;-70
2022/06/23 09:43:48;;;;;;;33.95;6.25;;;22.20;99.90;;;;;;5095504;28;20079;-70
2022/06/23 09:46:41;;;;;;;22.02;6.03;;;22.10;99.90;;;;;;5095341;28;20131;-70
2022/06/23 09:49:35;;;;;;;25.10;5.82;;;22.20;99.90;;;;;;5106495;28;20083;-70
2022/06/23 09:52:24;;;;;;;28.88;5.95;;;22.40;99.90;;;;;;5115741;28;20517;-70
2022/06/23 09:54:59;;;;;;;25.30;5.57;;;22.30;99.90;;;;;;5097942;28;20048;-71
2022/06/23 09:58:10;;;;;;;33.00;6.38;;;22.30;99.90;;;;;;5095309;28;20512;-70
2022/06/23 10:00:35;;;;;;;26.27;6.32;;;22.30;99.90;;;;;;5094861;28;20047;-71
2022/06/23 10:03:17;;;;;;;28.90;6.53;;;22.50;99.90;;;;;;5094813;28;20453;-71
2022/06/23 10:06:23;;;;;;;30.02;7.25;;;23.20;99.90;;;;;;5095079;28;20047;-70
2022/06/23 10:09:24;;;;;;;37.65;7.70;;;23.30;99.90;;;;;;5094970;28;20056;-70
2022/06/23 10:11:56;;;;;;;34.97;7.03;;;23.90;99.90;;;;;;5047996;28;20040;-69
2022/06/23 10:14:48;;;;;;;30.70;6.90;;;23.90;99.90;;;;;;5089582;28;20139;-69
2022/06/23 10:17:48;;;;;;;32.42;6.20;;;24.50;99.90;;;;;;5092528;28;20043;-69
2022/06/23 10:20:40;;;;;;;25.13;5.75;;;24.50;99.90;;;;;;5103039;28;20046;-69
2022/06/23 10:23:12;;;;;;;23.15;6.38;;;24.60;99.90;;;;;;5092423;28;20032;-69
2022/06/23 10:26:14;;;;;;;34.85;7.55;;;24.70;99.90;;;;;;5091505;28;20040;-70
2022/06/23 10:28:54;;;;;;;31.58;5.60;;;24.90;99.90;;;;;;5093375;28;20083;-70
2022/06/23 10:31:43;;;;;;;25.60;5.50;;;24.30;99.90;;;;;;5092439;28;20059;-70
2022/06/23 10:34:30;;;;;;;35.63;6.85;;;24.20;99.90;;;;;;5104055;28;20502;-71
2022/06/23 10:37:08;;;;;;;25.05;6.30;;;24.40;99.90;;;;;;5114039;28;20556;-71
2022/06/23 10:40:00;;;;;;;24.73;5.65;;;24.20;99.90;;;;;;5114854;28;20042;-70
2022/06/23 10:42:59;;;;;;;25.95;5.38;;;24.40;99.90;;;;;;5114686;28;20039;-71
2022/06/23 10:45:47;;;;;;;29.50;6.28;;;24.30;99.90;;;;;;5114660;28;20047;-70
2022/06/23 10:48:44;;;;;;;28.08;5.68;;;24.80;99.90;;;;;;5114388;28;20051;-71
2022/06/23 10:51:34;;;;;;;36.35;6.47;;;24.90;99.90;;;;;;5114634;28;20372;-71
2022/06/23 10:54:26;;;;;;;35.53;6.93;;;24.60;99.90;;;;;;5088050;28;20044;-70
2022/06/23 10:57:13;;;;;;;20.73;5.30;;;25.20;99.90;;;;;;5071551;28;20048;-71
2022/06/23 10:59:47;;;;;;;26.20;5.80;;;24.80;99.90;;;;;;5073833;28;20037;-71
2022/06/23 11:02:35;;;;;;;23.70;5.15;;;24.70;99.90;;;;;;5073841;28;20043;-71
2022/06/23 11:05:25;;;;;;;34.75;6.97;;;24.80;99.90;;;;;;5073707;28;20518;-71
2022/06/23 11:07:58;;;;;;;;;;;24.50;99.90;;;;;;5074107;28;20040;-72
2022/06/23 11:10:26;;;;;;;26.23;6.10;;;24.50;99.90;;;;;;5073548;28;19912;-71
2022/06/23 11:13:01;;;;;;;24.77;7.00;;;25.10;99.90;;;;;;5073559;28;20036;-71
2022/06/23 11:16:02;;;;;;;28.17;7.30;;;25.20;99.90;;;;;;5073410;28;20391;-71
2022/06/23 11:18:36;;;;;;;27.30;5.90;;;24.80;99.90;;;;;;5011213;28;20050;-71
2022/06/23 11:21:02;;;;;;;33.28;6.93;;;24.50;99.90;;;;;;5063930;28;20510;-71
2022/06/23 11:23:54;;;;;;;27.90;6.72;;;24.40;99.90;;;;;;5073077;28;20050;-71
2022/06/23 11:26:40;;;;;;;42.95;7.18;;;24.40;99.90;;;;;;5049141;28;20044;-71
2022/06/23 11:29:36;;;;;;;29.23;7.55;;;24.40;99.90;;;;;;5073174;28;20079;-72
2022/06/23 11:32:38;;;;;;;28.10;6.35;;;24.40;99.90;;;;;;5073354;28;20058;-71
2022/06/23 11:35:29;;;;;;;28.73;5.90;;;24.40;99.90;;;;;;5073185;28;20036;-71
2022/06/23 11:37:54;;;;;;;;;;;24.30;99.90;;;;;;5073028;28;20040;-71
2022/06/23 11:40:32;;;;;;;39.10;6.68;;;24.30;99.90;;;;;;5099375;28;20053;-71
2022/06/23 11:43:22;;;;;;;26.02;6.45;;;24.30;99.90;;;;;;5092988;28;20069;-71
2022/06/23 11:46:03;;;;;;;46.63;7.95;;;23.90;99.90;;;;;;5054945;28;20039;-68
2022/06/23 11:49:06;;;;;;;51.30;7.28;;;23.70;99.90;;;;;;5100314;28;20081;-67
2022/06/23 11:52:01;;;;;;;29.65;5.32;;;21.50;99.90;;;;;;5111862;28;20044;-69
2022/06/23 11:54:43;;;;;;;18.60;3.92;;;19.50;99.90;;;;;;5112083;28;20376;-70
2022/06/23 11:57:17;;;;;;;23.10;4.30;;;19.90;99.90;;;;;;5113247;28;20040;-71
2022/06/23 12:00:00;;;;;;;19.48;5.05;;;19.20;99.90;;;;;;5111147;28;20111;-71
2022/06/23 12:02:26;;;;;;;9.48;3.67;;;17.80;99.90;;;;;;5111111;28;20061;-70
2022/06/23 12:05:10;;;;;;;9.75;2.78;;;17.40;99.90;;;;;;5111362;28;20483;-70
2022/06/23 12:08:13;;;;;;;12.95;3.00;;;17.60;99.90;;;;;;5111286;28;20038;-69
2022/06/23 12:10:40;;;;;;;12.88;3.35;;;18.00;99.90;;;;;;5111234;28;20035;-70
2022/06/23 12:13:06;;;;;;;11.45;3.00;;;18.00;99.90;;;;;;5110941;28;20044;-69
2022/06/23 12:15:48;;;;;;;12.93;3.20;;;18.10;99.90;;;;;;5111196;28;20035;-70
2022/06/23 12:18:16;;;;;;;8.73;2.65;;;18.40;99.90;;;;;;5110862;28;20050;-70
2022/06/23 12:21:05;;;;;;;11.63;2.72;;;18.80;99.90;;;;;;5111422;28;20039;-70
2022/06/23 12:23:46;;;;;;;10.40;2.47;;;18.60;99.90;;;;;;5112218;28;20032;-70
2022/06/23 12:26:19;;;;;;;;;;;18.40;99.90;;;;;;5111385;28;20032;-69
2022/06/23 12:28:44;;;;;;;8.52;2.47;;;18.40;99.90;;;;;;5112433;28;20294;-67
2022/06/23 12:31:10;;;;;;;14.43;2.92;;;18.60;99.90;;;;;;5110701;28;20035;-67
2022/06/23 12:33:52;;;;;;;15.00;3.17;;;18.60;99.90;;;;;;5110932;28;20039;-68
2022/06/23 12:36:43;;;;;;;17.80;4.45;;;18.60;99.90;;;;;;5111075;28;20039;-71
2022/06/23 12:39:11;;;;;;;;;;;17.90;99.90;;;;;;5111292;28;20040;-69
2022/06/23 12:41:48;;;;;;;18.15;3.63;;;17.50;99.90;;;;;;5105464;28;19912;-69
2022/06/23 12:44:44;;;;;;;19.55;4.47;;;17.90;99.90;;;;;;5090871;28;20052;-69
2022/06/23 12:47:40;;;;;;;15.15;4.28;;;18.40;99.90;;;;;;5090267;28;20036;-69
2022/06/23 12:50:20;;;;;;;22.08;4.57;;;18.80;99.90;;;;;;5075906;28;20050;-69
2022/06/23 12:52:55;;;;;;;15.07;4.70;;;18.60;99.90;;;;;;5094958;28;20036;-69
2022/06/23 12:55:48;;;;;;;15.00;4.00;;;18.50;99.90;;;;;;5094073;28;20036;-69
2022/06/23 12:58:42;;;;;;;14.68;3.88;;;18.50;99.90;;;;;;5093677;28;20096;-69
2022/06/23 13:01:17;;;;;;;17.60;4.05;;;18.20;99.90;;;;;;5094202;28;20101;-69
2022/06/23 13:03:50;;;;;;;13.00;3.15;;;18.20;99.90;;;;;;5095835;28;20040;-69
2022/06/23 13:06:33;;;;;;;13.15;4.07;;;18.80;99.90;;;;;;5093821;28;20036;-69
2022/06/23 13:09:11;;;;;;;14.63;4.03;;;18.80;99.90;;;;;;5093924;28;20079;-69
2022/06/23 13:12:13;;;;;;;13.73;4.95;;;19.10;99.90;;;;;;5093650;28;20119;-69
2022/06/23 13:15:05;;;;;;;23.17;4.72;;;19.20;99.90;;;;;;5092951;28;20039;-69
2022/06/23 13:18:09;;;;;;;18.58;5.15;;;19.30;99.90;;;;;;5095992;28;20040;-68
2022/06/23 13:20:44;;;;;;;14.13;5.20;;;19.40;99.90;;;;;;5093169;28;20042;-68
2022/06/23 13:23:14;;;;;;;15.23;4.47;;;19.50;99.90;;;;;;5093569;28;20047;-69
2022/06/23 13:25:53;;;;;;;22.73;4.90;;;19.60;99.90;;;;;;5094506;28;20131;-69
2022/06/23 13:28:34;;;;;;;13.55;5.07;;;19.70;99.90;;;;;;5093789;28;20044;-69
2022/06/23 13:31:12;;;;;;;16.40;4.65;;;20.20;99.90;;;;;;5094003;28;20051;-69
2022/06/23 13:34:04;;;;;;;21.15;5.40;;;20.30;99.90;;;;;;5093627;28;20040;-69
2022/06/23 13:36:41;;;;;;;23.23;5.40;;;20.30;99.90;;;;;;5093655;28;20036;-69
2022/06/23 13:39:50;;;;;;;17.40;4.80;;;20.40;99.90;;;;;;5094832;28;20044;-69
2022/06/23 13:42:43;;;;;;;19.05;4.50;;;20.30;99.90;;;;;;5035420;28;20483;-69
2022/06/23 13:45:38;;;;;;;19.33;5.20;;;20.30;99.90;;;;;;5052585;28;20120;-70
2022/06/23 13:48:26;;;;;;;20.08;4.95;;;20.60;99.90;;;;;;5105221;28;20070;-70
2022/06/23 13:51:26;;;;;;;13.48;4.78;;;20.80;99.90;;;;;;5097011;28;20065;-70
2022/06/23 13:54:06;;;;;;;17.25;4.07;;;21.00;99.90;;;;;;5105968;28;20035;-69
2022/06/23 13:56:41;;;;;;;12.98;4.07;;;20.90;99.90;;;;;;5113838;28;20119;-70
2022/06/23 13:59:32;;;;;;;7.43;2.65;;;20.90;99.90;;;;;;5108169;28;20047;-70
2022/06/23 14:02:21;;;;;;;16.30;4.13;;;20.80;99.90;;;;;;5095017;28;20157;-70
2022/06/23 14:04:51;;;;;;;13.07;3.80;;;21.10;99.90;;;;;;5094467;28;20377;-70